createdAt,value
2019-05-01T00:02:55.507Z,33.200001
2019-05-01T00:08:19.360Z,33.400002
2019-05-01T00:13:42.890Z,34
2019-05-01T00:19:05.635Z,34.299999
2019-05-01T00:24:28.397Z,32.900002
2019-05-01T00:29:51.154Z,34.599998
2019-05-01T00:35:13.884Z,35.200001
2019-05-01T00:40:36.639Z,37.599998
2019-05-01T00:45:59.387Z,34.900002
2019-05-01T00:51:22.801Z,36.299999
2019-05-01T00:56:45.489Z,36.5
2019-05-01T01:02:08.167Z,38.200001
2019-05-01T01:07:30.901Z,38.700001
2019-05-01T01:12:53.637Z,37.799999
2019-05-01T01:18:17.310Z,36.400002
2019-05-01T01:23:40.171Z,37.200001
2019-05-01T01:29:02.889Z,36.799999
2019-05-01T01:34:25.602Z,36.599998
2019-05-01T01:39:48.269Z,36.200001
2019-05-01T01:45:10.919Z,37
2019-05-01T01:50:34.413Z,38.200001
2019-05-01T01:55:57.061Z,37
2019-05-01T02:01:19.693Z,37.299999
2019-05-01T02:06:42.329Z,37.099998
2019-05-01T02:12:04.991Z,37.900002
2019-05-01T02:17:28.066Z,38
2019-05-01T02:22:50.783Z,38.099998
2019-05-01T02:28:13.583Z,36.400002
2019-05-01T02:33:37.239Z,38.799999
2019-05-01T02:38:59.892Z,37.400002
2019-05-01T02:44:22.571Z,40.5
2019-05-01T02:49:46.249Z,42.400002
2019-05-01T02:55:08.996Z,41.099998
2019-05-01T03:00:31.767Z,41.200001
2019-05-01T03:05:54.498Z,42
2019-05-01T03:11:17.182Z,42
2019-05-01T03:16:39.861Z,42.599998
2019-05-01T03:22:02.697Z,41.099998
2019-05-01T03:27:25.404Z,42.5
2019-05-01T03:32:48.151Z,41.799999
2019-05-01T03:38:10.955Z,42.5
2019-05-01T03:43:34.732Z,43.400002
2019-05-01T03:48:57.413Z,44.299999
2019-05-01T03:54:20.091Z,44
2019-05-01T03:59:43.399Z,45.299999
2019-05-01T04:05:06.356Z,46.299999
2019-05-01T04:10:29.006Z,44.5
2019-05-01T04:15:52.108Z,41
2019-05-01T04:21:15.788Z,40.200001
2019-05-01T04:26:38.464Z,41.900002
2019-05-01T04:32:01.131Z,39.599998
2019-05-01T04:37:23.834Z,40.900002
2019-05-01T04:42:46.653Z,37.200001
2019-05-01T04:48:09.331Z,34.200001
2019-05-01T04:53:33.054Z,35.700001
2019-05-01T04:58:55.796Z,35.5
2019-05-01T05:04:18.434Z,35
2019-05-01T05:09:42.542Z,35.200001
2019-05-01T05:15:05.287Z,34
2019-05-01T05:20:28.948Z,35.299999
2019-05-01T05:25:52.912Z,35.099998
2019-05-01T05:31:15.561Z,34.099998
2019-05-01T05:36:38.255Z,36.200001
2019-05-01T05:42:01.534Z,36
2019-05-01T05:47:25.549Z,38.099998
2019-05-01T05:52:48.456Z,36.799999
2019-05-01T05:58:11.133Z,36.900002
2019-05-01T06:03:35.089Z,37.599998
2019-05-01T06:08:57.422Z,37.299999
2019-05-01T06:14:20.109Z,38.799999
2019-05-01T06:19:45.755Z,39
2019-05-01T06:25:07.532Z,38.799999
2019-05-01T06:30:30.586Z,39.799999
2019-05-01T06:35:53.537Z,39.400002
2019-05-01T06:41:16.543Z,36.700001
2019-05-01T06:46:39.225Z,32.299999
2019-05-01T06:52:01.923Z,31.1
2019-05-01T06:57:24.594Z,31.4
2019-05-01T07:02:47.383Z,31.9
2019-05-01T07:08:10.051Z,33
2019-05-01T07:13:35.434Z,32.599998
2019-05-01T07:18:57.950Z,34.299999
2019-05-01T07:24:23.957Z,33.099998
2019-05-01T07:29:44.795Z,34.299999
2019-05-01T07:35:07.403Z,33
2019-05-01T07:40:30.245Z,32.900002
2019-05-01T07:45:52.767Z,30.200001
2019-05-01T07:51:15.416Z,28.1
2019-05-01T07:56:38.042Z,29.1
2019-05-01T08:02:00.678Z,27.9
2019-05-01T08:07:23.378Z,27.200001
2019-05-01T08:12:46.035Z,27.9
2019-05-01T08:18:09.077Z,26.9
2019-05-01T08:23:31.751Z,26.9
2019-05-01T08:28:54.535Z,28
2019-05-01T08:34:20.607Z,28
2019-05-01T08:39:44.135Z,27
2019-05-01T08:45:05.377Z,27.200001
2019-05-01T08:50:28.224Z,27.200001
2019-05-01T08:55:50.948Z,26.700001
2019-05-01T09:01:14.957Z,26.4
2019-05-01T09:06:39.253Z,26.5
2019-05-01T09:12:06.717Z,27.6
2019-05-01T09:17:29.335Z,28.299999
2019-05-01T09:22:51.968Z,28.1
2019-05-01T09:28:15.659Z,28.299999
2019-05-01T09:33:38.310Z,28.799999
2019-05-01T09:39:01.522Z,29.6
2019-05-01T09:44:24.172Z,29
2019-05-01T09:49:48.645Z,29.9
2019-05-01T09:55:10.557Z,29.4
2019-05-01T10:00:33.203Z,30.1
2019-05-01T10:05:55.881Z,28.700001
2019-05-01T10:11:18.480Z,29.700001
2019-05-01T10:16:41.595Z,27.9
2019-05-01T10:22:04.182Z,27.799999
2019-05-01T10:27:30.761Z,26.9
2019-05-01T10:32:52.729Z,26.700001
2019-05-01T10:38:13.172Z,26.5
2019-05-01T10:43:35.809Z,26.700001
2019-05-01T10:48:58.448Z,26.299999
2019-05-01T10:54:21.104Z,26.6
2019-05-01T10:59:43.739Z,26.299999
2019-05-01T11:05:06.460Z,26.6
2019-05-01T11:10:29.070Z,26.9
2019-05-01T11:15:51.706Z,25.4
2019-05-01T11:21:14.305Z,27
2019-05-01T11:26:36.941Z,26.700001
2019-05-01T11:32:00.055Z,27.1
2019-05-01T11:37:22.748Z,25.4
2019-05-01T11:42:45.326Z,26.4
2019-05-01T11:48:07.986Z,26.1
2019-05-01T11:53:30.559Z,26.700001
2019-05-01T11:58:53.220Z,26.799999
2019-05-01T12:04:15.780Z,26.700001
2019-05-01T12:09:38.455Z,25.6
2019-05-01T12:15:01.038Z,26.799999
2019-05-01T12:20:23.702Z,25.5
2019-05-01T12:25:46.280Z,26.200001
2019-05-01T12:31:08.944Z,26
2019-05-01T12:36:36.194Z,25.9
2019-05-01T12:41:55.109Z,26.6
2019-05-01T12:47:17.756Z,26.799999
2019-05-01T12:52:40.379Z,27
2019-05-01T12:58:03.681Z,25.799999
2019-05-01T13:03:26.316Z,27.1
2019-05-01T13:08:48.914Z,26.9
2019-05-01T13:14:11.535Z,28.1
2019-05-01T13:19:34.157Z,27.4
2019-05-01T13:24:56.839Z,27.6
2019-05-01T13:30:19.445Z,27.200001
2019-05-01T13:35:42.117Z,29
2019-05-01T13:41:05.713Z,27.6
2019-05-01T13:46:28.307Z,27.6
2019-05-01T13:51:50.900Z,26.799999
2019-05-01T13:57:13.526Z,27.5
2019-05-01T14:02:36.142Z,26.9
2019-05-01T14:07:58.779Z,27.700001
2019-05-01T14:13:21.383Z,27.299999
2019-05-01T14:18:44.127Z,27.200001
2019-05-01T14:24:06.795Z,27.799999
2019-05-01T14:29:29.372Z,27.6
2019-05-01T14:34:52.023Z,27
2019-05-01T14:40:14.620Z,27.200001
2019-05-01T14:45:37.227Z,27.9
2019-05-01T14:50:59.868Z,28.299999
2019-05-01T14:56:23.354Z,26.9
2019-05-01T15:01:47.266Z,27.4
2019-05-01T15:07:11.179Z,27.9
2019-05-01T15:12:33.221Z,27.5
2019-05-01T15:17:55.942Z,27.5
2019-05-01T15:23:18.573Z,27.799999
2019-05-01T15:28:41.230Z,28.299999
2019-05-01T15:34:03.888Z,27.6
2019-05-01T15:39:26.524Z,27.4
2019-05-01T15:44:49.127Z,26.799999
2019-05-01T15:50:11.830Z,27.700001
2019-05-01T15:55:34.465Z,28.200001
2019-05-01T16:00:57.112Z,28.799999
2019-05-01T16:06:21.085Z,28.4
2019-05-01T16:11:44.118Z,27.6
2019-05-01T16:17:06.731Z,28.299999
2019-05-01T16:22:29.353Z,27.200001
2019-05-01T16:27:51.991Z,28.4
2019-05-01T16:33:14.642Z,28.6
2019-05-01T16:38:40.763Z,28.1
2019-05-01T16:44:03.411Z,27.700001
2019-05-01T16:49:26.073Z,27.299999
2019-05-01T16:54:58.939Z,28.799999
2019-05-01T17:00:12.894Z,28.9
2019-05-01T17:05:35.721Z,28.700001
2019-05-01T17:11:01.697Z,29
2019-05-01T17:16:24.341Z,29.299999
2019-05-01T17:21:47.094Z,28.9
2019-05-01T17:27:11.745Z,28.9
2019-05-01T17:32:34.456Z,29.299999
2019-05-01T17:37:57.247Z,29.5
2019-05-01T17:43:20.010Z,28.5
2019-05-01T17:48:45.718Z,27.6
2019-05-01T17:54:08.381Z,27.6
2019-05-01T17:59:31.212Z,27.299999
2019-05-01T18:04:53.938Z,27.4
2019-05-01T18:10:16.595Z,28.1
2019-05-01T18:15:39.294Z,28.1
2019-05-01T18:21:01.941Z,27.799999
2019-05-01T18:26:25.367Z,29.299999
2019-05-01T18:31:48.026Z,28.5
2019-05-01T18:37:11.031Z,29.200001
2019-05-01T18:42:33.908Z,28.799999
2019-05-01T18:47:56.641Z,28
2019-05-01T18:53:20.328Z,27.200001
2019-05-01T18:58:43.035Z,26.9
2019-05-01T19:04:05.869Z,25.700001
2019-05-01T19:09:30.553Z,26
2019-05-01T19:14:52.673Z,22.700001
2019-05-01T19:20:15.606Z,23.1
2019-05-01T19:25:39.498Z,22.4
2019-05-01T19:31:02.431Z,22.299999
2019-05-01T19:36:25.402Z,22.6
2019-05-01T19:41:48.961Z,21.4
2019-05-01T19:47:12.178Z,21.799999
2019-05-01T19:52:37.757Z,21
2019-05-01T19:57:59.021Z,20.4
2019-05-01T20:03:21.986Z,20.4
2019-05-01T20:08:44.846Z,20.700001
2019-05-01T20:14:07.798Z,20.1
2019-05-01T20:19:30.816Z,20.799999
2019-05-01T20:24:53.753Z,20.4
2019-05-01T20:30:16.695Z,21.200001
2019-05-01T20:35:39.452Z,18.799999
2019-05-01T20:41:02.222Z,18.6
2019-05-01T20:46:27.620Z,18.700001
2019-05-01T20:51:50.178Z,17.6
2019-05-01T20:57:19.159Z,18
2019-05-01T21:02:38.834Z,17.299999
2019-05-01T21:08:01.125Z,19.1
2019-05-01T21:13:25.078Z,18.5
2019-05-01T21:18:47.685Z,17.700001
2019-05-01T21:24:10.421Z,18.700001
2019-05-01T21:29:34.292Z,18.5
2019-05-01T21:34:56.822Z,19.700001
2019-05-01T21:40:19.446Z,19.299999
2019-05-01T21:45:43.332Z,21.1
2019-05-01T21:51:07.223Z,20
2019-05-01T21:56:29.566Z,20.700001
2019-05-01T22:01:52.230Z,19.799999
2019-05-01T22:07:14.965Z,21
2019-05-01T22:12:37.840Z,20.5
2019-05-01T22:18:00.508Z,21
2019-05-01T22:23:23.284Z,20.5
2019-05-01T22:28:50.092Z,22.6
2019-05-01T22:34:09.706Z,23.4
2019-05-01T22:39:32.532Z,23
2019-05-01T22:44:55.305Z,22.700001
2019-05-01T22:50:18.074Z,21.9
2019-05-01T22:55:40.826Z,21.5
2019-05-01T23:01:03.628Z,23
2019-05-01T23:06:26.329Z,22.4
2019-05-01T23:11:49.181Z,22.6
2019-05-01T23:17:11.890Z,23.1
2019-05-01T23:22:34.722Z,23.6
2019-05-01T23:27:59.543Z,22.700001
2019-05-01T23:33:21.143Z,24.6
2019-05-01T23:38:43.939Z,23.5
2019-05-01T23:44:06.617Z,24.6
2019-05-01T23:49:30.226Z,24.799999
2019-05-01T23:54:52.956Z,25.4
